sensor_id;sensor_type;location;lat;lon;timestamp;temperature;humidity
8537;DHT22;4306;50.210;10.628;2023-07-02T00:01:45;17.20;99.90
8537;DHT22;4306;50.210;10.628;2023-07-02T00:04:14;17.20;99.90
8537;DHT22;4306;50.210;10.628;2023-07-02T00:06:42;17.20;99.90
8537;DHT22;4306;50.210;10.628;2023-07-02T00:09:09;17.20;99.90
8537;DHT22;4306;50.210;10.628;2023-07-02T00:11:37;17.20;99.90
8537;DHT22;4306;50.210;10.628;2023-07-02T00:14:04;17.20;99.90
8537;DHT22;4306;50.210;10.628;2023-07-02T00:16:31;17.10;99.90
8537;DHT22;4306;50.210;10.628;2023-07-02T00:18:58;17.10;99.90
8537;DHT22;4306;50.210;10.628;2023-07-02T00:21:26;17.10;99.90
8537;DHT22;4306;50.210;10.628;2023-07-02T00:23:53;17.20;99.90
8537;DHT22;4306;50.210;10.628;2023-07-02T00:26:23;17.20;99.90
8537;DHT22;4306;50.210;10.628;2023-07-02T00:28:50;17.20;99.90
8537;DHT22;4306;50.210;10.628;2023-07-02T00:31:17;17.10;99.90
8537;DHT22;4306;50.210;10.628;2023-07-02T00:33:44;17.10;99.90
8537;DHT22;4306;50.210;10.628;2023-07-02T00:36:11;17.10;99.90
8537;DHT22;4306;50.210;10.628;2023-07-02T00:38:44;17.10;99.90
8537;DHT22;4306;50.210;10.628;2023-07-02T00:41:11;17.10;99.90
8537;DHT22;4306;50.210;10.628;2023-07-02T00:43:38;17.00;99.90
8537;DHT22;4306;50.210;10.628;2023-07-02T00:46:09;17.00;99.90
8537;DHT22;4306;50.210;10.628;2023-07-02T00:48:38;17.00;99.90
8537;DHT22;4306;50.210;10.628;2023-07-02T00:51:05;16.90;99.90
8537;DHT22;4306;50.210;10.628;2023-07-02T00:53:32;17.00;99.90
8537;DHT22;4306;50.210;10.628;2023-07-02T00:56:00;17.00;99.90
8537;DHT22;4306;50.210;10.628;2023-07-02T00:58:29;17.00;99.90
8537;DHT22;4306;50.210;10.628;2023-07-02T01:00:56;17.00;99.90
8537;DHT22;4306;50.210;10.628;2023-07-02T01:03:23;17.00;99.90
8537;DHT22;4306;50.210;10.628;2023-07-02T01:05:50;17.00;99.90
8537;DHT22;4306;50.210;10.628;2023-07-02T01:08:17;17.00;99.90
8537;DHT22;4306;50.210;10.628;2023-07-02T01:10:44;16.90;99.90
8537;DHT22;4306;50.210;10.628;2023-07-02T01:13:15;16.90;99.90
8537;DHT22;4306;50.210;10.628;2023-07-02T01:15:44;16.90;99.90
8537;DHT22;4306;50.210;10.628;2023-07-02T01:18:12;16.90;99.90
8537;DHT22;4306;50.210;10.628;2023-07-02T01:20:41;16.90;99.90
8537;DHT22;4306;50.210;10.628;2023-07-02T01:23:09;17.00;99.90
8537;DHT22;4306;50.210;10.628;2023-07-02T01:25:36;17.00;99.90
8537;DHT22;4306;50.210;10.628;2023-07-02T01:28:07;16.90;99.90
8537;DHT22;4306;50.210;10.628;2023-07-02T01:30:34;16.90;99.90
8537;DHT22;4306;50.210;10.628;2023-07-02T01:33:00;16.90;99.90
8537;DHT22;4306;50.210;10.628;2023-07-02T01:35:27;17.00;99.90
8537;DHT22;4306;50.210;10.628;2023-07-02T01:37:56;17.00;99.90
8537;DHT22;4306;50.210;10.628;2023-07-02T01:40:23;17.00;99.90
8537;DHT22;4306;50.210;10.628;2023-07-02T01:42:49;17.00;99.90
8537;DHT22;4306;50.210;10.628;2023-07-02T01:45:16;17.00;99.90
8537;DHT22;4306;50.210;10.628;2023-07-02T01:47:43;17.00;99.90
8537;DHT22;4306;50.210;10.628;2023-07-02T01:50:10;17.00;99.90
8537;DHT22;4306;50.210;10.628;2023-07-02T01:52:37;16.90;99.90
8537;DHT22;4306;50.210;10.628;2023-07-02T01:55:06;17.00;99.90
8537;DHT22;4306;50.210;10.628;2023-07-02T01:57:33;16.90;99.90
8537;DHT22;4306;50.210;10.628;2023-07-02T02:00:00;16.90;99.90
8537;DHT22;4306;50.210;10.628;2023-07-02T02:02:27;16.90;99.90
8537;DHT22;4306;50.210;10.628;2023-07-02T02:04:54;16.90;99.90
8537;DHT22;4306;50.210;10.628;2023-07-02T02:07:22;16.90;99.90
8537;DHT22;4306;50.210;10.628;2023-07-02T02:09:49;16.90;99.90
8537;DHT22;4306;50.210;10.628;2023-07-02T02:12:17;16.80;99.90
8537;DHT22;4306;50.210;10.628;2023-07-02T02:14:44;16.80;99.90
8537;DHT22;4306;50.210;10.628;2023-07-02T02:17:11;16.90;99.90
8537;DHT22;4306;50.210;10.628;2023-07-02T02:19:38;16.90;99.90
8537;DHT22;4306;50.210;10.628;2023-07-02T02:22:05;16.90;99.90
8537;DHT22;4306;50.210;10.628;2023-07-02T02:24:31;16.80;99.90
8537;DHT22;4306;50.210;10.628;2023-07-02T02:26:58;16.90;99.90
8537;DHT22;4306;50.210;10.628;2023-07-02T02:29:26;16.90;99.90
8537;DHT22;4306;50.210;10.628;2023-07-02T02:31:53;16.80;99.90
8537;DHT22;4306;50.210;10.628;2023-07-02T02:34:20;16.80;99.90
8537;DHT22;4306;50.210;10.628;2023-07-02T02:36:47;16.80;99.90
8537;DHT22;4306;50.210;10.628;2023-07-02T02:39:14;16.70;99.90
8537;DHT22;4306;50.210;10.628;2023-07-02T02:41:41;16.80;99.90
8537;DHT22;4306;50.210;10.628;2023-07-02T02:44:09;16.70;99.90
8537;DHT22;4306;50.210;10.628;2023-07-02T02:46:37;16.70;99.90
8537;DHT22;4306;50.210;10.628;2023-07-02T02:49:03;16.80;99.90
8537;DHT22;4306;50.210;10.628;2023-07-02T02:51:30;16.70;99.90
8537;DHT22;4306;50.210;10.628;2023-07-02T02:53:57;16.70;99.90
8537;DHT22;4306;50.210;10.628;2023-07-02T02:56:24;16.70;99.90
8537;DHT22;4306;50.210;10.628;2023-07-02T02:58:51;16.60;99.90
8537;DHT22;4306;50.210;10.628;2023-07-02T03:01:17;16.60;99.90
8537;DHT22;4306;50.210;10.628;2023-07-02T03:03:46;16.60;99.90
8537;DHT22;4306;50.210;10.628;2023-07-02T03:06:13;16.50;99.90
8537;DHT22;4306;50.210;10.628;2023-07-02T03:08:41;16.60;99.90
8537;DHT22;4306;50.210;10.628;2023-07-02T03:11:07;16.50;99.90
8537;DHT22;4306;50.210;10.628;2023-07-02T03:13:34;16.50;99.90
8537;DHT22;4306;50.210;10.628;2023-07-02T03:16:01;16.50;99.90
8537;DHT22;4306;50.210;10.628;2023-07-02T03:18:28;16.50;99.90
8537;DHT22;4306;50.210;10.628;2023-07-02T03:20:56;16.50;99.90
8537;DHT22;4306;50.210;10.628;2023-07-02T03:23:23;16.40;99.90
8537;DHT22;4306;50.210;10.628;2023-07-02T03:25:50;16.40;99.90
8537;DHT22;4306;50.210;10.628;2023-07-02T03:28:17;16.40;99.90
8537;DHT22;4306;50.210;10.628;2023-07-02T03:30:44;16.30;99.90
8537;DHT22;4306;50.210;10.628;2023-07-02T03:33:10;16.40;99.90
8537;DHT22;4306;50.210;10.628;2023-07-02T03:35:37;16.30;99.90
8537;DHT22;4306;50.210;10.628;2023-07-02T03:38:05;16.30;99.90
8537;DHT22;4306;50.210;10.628;2023-07-02T03:40:32;16.30;99.90
8537;DHT22;4306;50.210;10.628;2023-07-02T03:42:59;16.20;99.90
8537;DHT22;4306;50.210;10.628;2023-07-02T03:45:26;16.20;99.90
8537;DHT22;4306;50.210;10.628;2023-07-02T03:47:53;16.10;99.90
8537;DHT22;4306;50.210;10.628;2023-07-02T03:50:20;16.00;99.90
8537;DHT22;4306;50.210;10.628;2023-07-02T03:52:48;16.00;99.90
8537;DHT22;4306;50.210;10.628;2023-07-02T03:55:16;16.00;99.90
8537;DHT22;4306;50.210;10.628;2023-07-02T03:57:43;16.10;99.90
8537;DHT22;4306;50.210;10.628;2023-07-02T04:00:10;16.10;99.90
8537;DHT22;4306;50.210;10.628;2023-07-02T04:02:37;16.00;99.90
8537;DHT22;4306;50.210;10.628;2023-07-02T04:05:05;16.00;99.90
8537;DHT22;4306;50.210;10.628;2023-07-02T04:07:32;16.10;99.90
8537;DHT22;4306;50.210;10.628;2023-07-02T04:09:59;16.10;99.90
8537;DHT22;4306;50.210;10.628;2023-07-02T04:12:28;16.10;99.90
8537;DHT22;4306;50.210;10.628;2023-07-02T04:14:55;16.20;99.90
8537;DHT22;4306;50.210;10.628;2023-07-02T04:17:21;16.20;99.90
8537;DHT22;4306;50.210;10.628;2023-07-02T04:19:48;16.20;99.90
8537;DHT22;4306;50.210;10.628;2023-07-02T04:22:15;16.20;99.90
8537;DHT22;4306;50.210;10.628;2023-07-02T04:24:43;16.20;99.90
8537;DHT22;4306;50.210;10.628;2023-07-02T04:27:10;16.30;99.90
8537;DHT22;4306;50.210;10.628;2023-07-02T04:29:40;16.30;99.90
8537;DHT22;4306;50.210;10.628;2023-07-02T04:32:08;16.20;99.90
8537;DHT22;4306;50.210;10.628;2023-07-02T04:34:34;16.20;99.90
8537;DHT22;4306;50.210;10.628;2023-07-02T04:37:02;16.20;99.90
8537;DHT22;4306;50.210;10.628;2023-07-02T04:39:29;16.10;99.90
8537;DHT22;4306;50.210;10.628;2023-07-02T04:41:56;16.10;99.90
8537;DHT22;4306;50.210;10.628;2023-07-02T04:44:23;16.20;99.90
8537;DHT22;4306;50.210;10.628;2023-07-02T04:46:57;16.10;99.90
8537;DHT22;4306;50.210;10.628;2023-07-02T04:49:24;16.10;99.90
8537;DHT22;4306;50.210;10.628;2023-07-02T04:51:51;16.10;99.90
8537;DHT22;4306;50.210;10.628;2023-07-02T04:54:19;16.10;99.90
8537;DHT22;4306;50.210;10.628;2023-07-02T04:56:46;16.20;99.90
8537;DHT22;4306;50.210;10.628;2023-07-02T04:59:13;16.20;99.90
8537;DHT22;4306;50.210;10.628;2023-07-02T05:01:40;16.20;99.90
8537;DHT22;4306;50.210;10.628;2023-07-02T05:04:09;16.30;99.90
8537;DHT22;4306;50.210;10.628;2023-07-02T05:06:36;16.30;99.90
8537;DHT22;4306;50.210;10.628;2023-07-02T05:09:03;16.20;99.90
8537;DHT22;4306;50.210;10.628;2023-07-02T05:11:30;16.20;99.90
8537;DHT22;4306;50.210;10.628;2023-07-02T05:13:57;16.30;99.90
8537;DHT22;4306;50.210;10.628;2023-07-02T05:16:24;16.30;99.90
8537;DHT22;4306;50.210;10.628;2023-07-02T05:18:51;16.20;99.90
8537;DHT22;4306;50.210;10.628;2023-07-02T05:21:19;16.20;99.90
8537;DHT22;4306;50.210;10.628;2023-07-02T05:23:47;16.20;99.90
8537;DHT22;4306;50.210;10.628;2023-07-02T05:26:14;16.30;99.90
8537;DHT22;4306;50.210;10.628;2023-07-02T05:28:41;16.20;99.90
8537;DHT22;4306;50.210;10.628;2023-07-02T05:31:08;16.30;99.90
8537;DHT22;4306;50.210;10.628;2023-07-02T05:33:34;16.30;99.90
8537;DHT22;4306;50.210;10.628;2023-07-02T05:36:01;16.30;99.90
8537;DHT22;4306;50.210;10.628;2023-07-02T05:38:29;16.40;99.90
8537;DHT22;4306;50.210;10.628;2023-07-02T05:40:56;16.40;99.90
8537;DHT22;4306;50.210;10.628;2023-07-02T05:43:23;16.30;99.90
8537;DHT22;4306;50.210;10.628;2023-07-02T05:45:51;16.30;99.90
8537;DHT22;4306;50.210;10.628;2023-07-02T05:48:18;16.40;99.90
8537;DHT22;4306;50.210;10.628;2023-07-02T05:50:45;16.30;99.90
8537;DHT22;4306;50.210;10.628;2023-07-02T05:53:12;16.30;99.90
8537;DHT22;4306;50.210;10.628;2023-07-02T05:55:40;16.30;99.90
8537;DHT22;4306;50.210;10.628;2023-07-02T05:58:08;16.30;99.90
8537;DHT22;4306;50.210;10.628;2023-07-02T06:00:35;16.30;99.90
8537;DHT22;4306;50.210;10.628;2023-07-02T06:03:02;16.40;99.90
8537;DHT22;4306;50.210;10.628;2023-07-02T06:05:29;16.30;99.90
8537;DHT22;4306;50.210;10.628;2023-07-02T06:07:56;16.30;99.90
8537;DHT22;4306;50.210;10.628;2023-07-02T06:10:22;16.30;99.90
8537;DHT22;4306;50.210;10.628;2023-07-02T06:12:50;16.40;99.90
8537;DHT22;4306;50.210;10.628;2023-07-02T06:15:18;16.40;99.90
8537;DHT22;4306;50.210;10.628;2023-07-02T06:17:45;16.40;99.90
8537;DHT22;4306;50.210;10.628;2023-07-02T06:20:12;16.40;99.90
8537;DHT22;4306;50.210;10.628;2023-07-02T06:22:39;16.40;99.90
8537;DHT22;4306;50.210;10.628;2023-07-02T06:25:08;16.40;99.90
8537;DHT22;4306;50.210;10.628;2023-07-02T06:27:35;16.40;99.90
8537;DHT22;4306;50.210;10.628;2023-07-02T06:30:03;16.30;99.90
8537;DHT22;4306;50.210;10.628;2023-07-02T06:32:31;16.40;99.90
8537;DHT22;4306;50.210;10.628;2023-07-02T06:34:58;16.40;99.90
8537;DHT22;4306;50.210;10.628;2023-07-02T06:37:26;16.60;99.90
8537;DHT22;4306;50.210;10.628;2023-07-02T06:39:53;16.70;99.90
8537;DHT22;4306;50.210;10.628;2023-07-02T06:42:21;16.90;99.90
8537;DHT22;4306;50.210;10.628;2023-07-02T06:44:48;17.00;99.90
8537;DHT22;4306;50.210;10.628;2023-07-02T06:47:16;17.10;99.90
8537;DHT22;4306;50.210;10.628;2023-07-02T06:49:43;17.20;99.90
8537;DHT22;4306;50.210;10.628;2023-07-02T06:52:10;17.30;99.90
8537;DHT22;4306;50.210;10.628;2023-07-02T06:54:37;17.40;99.90
8537;DHT22;4306;50.210;10.628;2023-07-02T06:57:04;17.50;99.90
8537;DHT22;4306;50.210;10.628;2023-07-02T06:59:31;17.50;99.90
8537;DHT22;4306;50.210;10.628;2023-07-02T07:01:58;17.60;99.90
8537;DHT22;4306;50.210;10.628;2023-07-02T07:04:26;17.70;99.90
8537;DHT22;4306;50.210;10.628;2023-07-02T07:06:56;17.60;99.90
8537;DHT22;4306;50.210;10.628;2023-07-02T07:09:23;17.60;99.90
8537;DHT22;4306;50.210;10.628;2023-07-02T07:11:52;17.60;99.90
8537;DHT22;4306;50.210;10.628;2023-07-02T07:14:19;17.60;99.90
8537;DHT22;4306;50.210;10.628;2023-07-02T07:16:47;17.70;99.90
8537;DHT22;4306;50.210;10.628;2023-07-02T07:19:14;18.00;99.90
8537;DHT22;4306;50.210;10.628;2023-07-02T07:21:43;17.80;99.90
8537;DHT22;4306;50.210;10.628;2023-07-02T07:24:10;17.90;99.90
8537;DHT22;4306;50.210;10.628;2023-07-02T07:26:37;17.90;99.90
8537;DHT22;4306;50.210;10.628;2023-07-02T07:29:04;18.00;99.90
8537;DHT22;4306;50.210;10.628;2023-07-02T07:31:36;18.20;99.90
8537;DHT22;4306;50.210;10.628;2023-07-02T07:34:05;18.20;99.90
8537;DHT22;4306;50.210;10.628;2023-07-02T07:36:32;18.30;99.90
8537;DHT22;4306;50.210;10.628;2023-07-02T07:39:01;18.30;99.90
8537;DHT22;4306;50.210;10.628;2023-07-02T07:41:28;18.40;99.90
8537;DHT22;4306;50.210;10.628;2023-07-02T07:43:55;18.40;99.90
8537;DHT22;4306;50.210;10.628;2023-07-02T07:46:26;18.30;99.90
8537;DHT22;4306;50.210;10.628;2023-07-02T07:48:53;18.40;99.90
8537;DHT22;4306;50.210;10.628;2023-07-02T07:51:21;18.40;99.90
8537;DHT22;4306;50.210;10.628;2023-07-02T07:53:47;18.50;99.90
8537;DHT22;4306;50.210;10.628;2023-07-02T07:56:16;18.50;99.90
8537;DHT22;4306;50.210;10.628;2023-07-02T07:58:42;18.60;99.90
8537;DHT22;4306;50.210;10.628;2023-07-02T08:01:09;18.70;99.90
8537;DHT22;4306;50.210;10.628;2023-07-02T08:03:37;18.60;99.90
8537;DHT22;4306;50.210;10.628;2023-07-02T08:06:04;18.50;99.90
8537;DHT22;4306;50.210;10.628;2023-07-02T08:08:31;18.70;99.90
8537;DHT22;4306;50.210;10.628;2023-07-02T08:10:58;18.80;99.90
8537;DHT22;4306;50.210;10.628;2023-07-02T08:13:26;18.80;99.90
8537;DHT22;4306;50.210;10.628;2023-07-02T08:15:53;18.90;99.90
8537;DHT22;4306;50.210;10.628;2023-07-02T08:18:20;19.00;99.90
8537;DHT22;4306;50.210;10.628;2023-07-02T08:20:47;19.20;99.90
8537;DHT22;4306;50.210;10.628;2023-07-02T08:23:14;19.00;99.90
8537;DHT22;4306;50.210;10.628;2023-07-02T08:25:40;19.00;99.90
8537;DHT22;4306;50.210;10.628;2023-07-02T08:28:07;18.80;99.90
8537;DHT22;4306;50.210;10.628;2023-07-02T08:30:36;18.80;99.90
8537;DHT22;4306;50.210;10.628;2023-07-02T08:33:03;19.10;99.90
8537;DHT22;4306;50.210;10.628;2023-07-02T08:43:08;20.20;99.90
8537;DHT22;4306;50.210;10.628;2023-07-02T08:45:36;20.30;99.90
8537;DHT22;4306;50.210;10.628;2023-07-02T08:48:05;20.50;99.90
8537;DHT22;4306;50.210;10.628;2023-07-02T08:50:32;20.70;99.90
8537;DHT22;4306;50.210;10.628;2023-07-02T08:52:59;20.80;99.90
8537;DHT22;4306;50.210;10.628;2023-07-02T08:55:26;21.00;99.10
8537;DHT22;4306;50.210;10.628;2023-07-02T09:00:23;21.40;99.40
8537;DHT22;4306;50.210;10.628;2023-07-02T09:02:51;21.70;98.30
8537;DHT22;4306;50.210;10.628;2023-07-02T09:05:18;21.80;97.40
8537;DHT22;4306;50.210;10.628;2023-07-02T09:07:45;21.80;97.70
8537;DHT22;4306;50.210;10.628;2023-07-02T09:10:24;21.90;96.90
8537;DHT22;4306;50.210;10.628;2023-07-02T09:13:02;20.90;96.10
8537;DHT22;4306;50.210;10.628;2023-07-02T09:15:35;20.90;97.40
8537;DHT22;4306;50.210;10.628;2023-07-02T09:18:14;20.90;97.30
8537;DHT22;4306;50.210;10.628;2023-07-02T09:20:42;21.10;96.70
8537;DHT22;4306;50.210;10.628;2023-07-02T09:23:09;20.80;96.80
8537;DHT22;4306;50.210;10.628;2023-07-02T09:25:37;21.20;97.60
8537;DHT22;4306;50.210;10.628;2023-07-02T09:28:14;21.10;95.60
8537;DHT22;4306;50.210;10.628;2023-07-02T09:30:52;20.60;96.10
8537;DHT22;4306;50.210;10.628;2023-07-02T09:33:21;20.90;96.40
8537;DHT22;4306;50.210;10.628;2023-07-02T09:35:48;20.90;95.70
8537;DHT22;4306;50.210;10.628;2023-07-02T09:38:15;20.70;96.10
8537;DHT22;4306;50.210;10.628;2023-07-02T09:40:46;20.60;96.20
8537;DHT22;4306;50.210;10.628;2023-07-02T09:43:14;20.50;96.10
8537;DHT22;4306;50.210;10.628;2023-07-02T09:45:43;20.50;96.70
8537;DHT22;4306;50.210;10.628;2023-07-02T09:48:13;20.80;96.60
8537;DHT22;4306;50.210;10.628;2023-07-02T09:50:44;20.90;95.90
8537;DHT22;4306;50.210;10.628;2023-07-02T09:53:11;20.80;96.60
8537;DHT22;4306;50.210;10.628;2023-07-02T09:55:39;20.90;95.70
8537;DHT22;4306;50.210;10.628;2023-07-02T09:58:06;20.70;94.50
8537;DHT22;4306;50.210;10.628;2023-07-02T10:00:33;21.00;95.70
8537;DHT22;4306;50.210;10.628;2023-07-02T10:03:00;21.20;95.20
8537;DHT22;4306;50.210;10.628;2023-07-02T10:05:28;21.30;94.60
8537;DHT22;4306;50.210;10.628;2023-07-02T10:07:57;21.10;95.30
8537;DHT22;4306;50.210;10.628;2023-07-02T10:10:27;21.30;95.20
8537;DHT22;4306;50.210;10.628;2023-07-02T10:12:53;21.40;95.00
8537;DHT22;4306;50.210;10.628;2023-07-02T10:15:24;21.30;94.60
8537;DHT22;4306;50.210;10.628;2023-07-02T10:17:56;20.40;94.90
8537;DHT22;4306;50.210;10.628;2023-07-02T10:20:35;20.70;95.40
8537;DHT22;4306;50.210;10.628;2023-07-02T10:23:05;20.70;95.10
8537;DHT22;4306;50.210;10.628;2023-07-02T10:25:33;21.10;96.10
8537;DHT22;4306;50.210;10.628;2023-07-02T10:28:13;20.90;95.00
8537;DHT22;4306;50.210;10.628;2023-07-02T10:30:41;20.30;95.20
8537;DHT22;4306;50.210;10.628;2023-07-02T10:33:09;20.70;95.70
8537;DHT22;4306;50.210;10.628;2023-07-02T10:35:37;20.80;94.60
8537;DHT22;4306;50.210;10.628;2023-07-02T10:38:05;20.90;94.70
8537;DHT22;4306;50.210;10.628;2023-07-02T10:40:33;20.80;94.20
8537;DHT22;4306;50.210;10.628;2023-07-02T10:43:00;20.10;94.20
8537;DHT22;4306;50.210;10.628;2023-07-02T10:45:33;20.30;94.80
8537;DHT22;4306;50.210;10.628;2023-07-02T10:48:02;20.60;94.30
8537;DHT22;4306;50.210;10.628;2023-07-02T10:50:30;20.60;93.60
8537;DHT22;4306;50.210;10.628;2023-07-02T10:52:57;20.70;93.80
8537;DHT22;4306;50.210;10.628;2023-07-02T10:55:26;21.00;93.80
8537;DHT22;4306;50.210;10.628;2023-07-02T10:58:03;21.20;94.30
8537;DHT22;4306;50.210;10.628;2023-07-02T11:00:43;21.20;94.50
8537;DHT22;4306;50.210;10.628;2023-07-02T11:03:16;21.00;94.90
8537;DHT22;4306;50.210;10.628;2023-07-02T11:05:44;20.80;95.10
8537;DHT22;4306;50.210;10.628;2023-07-02T11:08:11;21.10;95.60
8537;DHT22;4306;50.210;10.628;2023-07-02T11:10:39;21.60;96.00
8537;DHT22;4306;50.210;10.628;2023-07-02T11:13:13;21.70;93.90
8537;DHT22;4306;50.210;10.628;2023-07-02T11:15:40;20.50;94.50
8537;DHT22;4306;50.210;10.628;2023-07-02T11:18:10;20.40;94.80
8537;DHT22;4306;50.210;10.628;2023-07-02T11:20:38;20.80;94.40
8537;DHT22;4306;50.210;10.628;2023-07-02T11:23:16;21.10;94.50
8537;DHT22;4306;50.210;10.628;2023-07-02T11:25:54;21.40;94.00
8537;DHT22;4306;50.210;10.628;2023-07-02T11:28:21;21.20;92.90
8537;DHT22;4306;50.210;10.628;2023-07-02T11:30:48;21.30;94.10
8537;DHT22;4306;50.210;10.628;2023-07-02T11:33:15;21.40;92.70
8537;DHT22;4306;50.210;10.628;2023-07-02T11:35:42;21.50;92.60
8537;DHT22;4306;50.210;10.628;2023-07-02T11:38:09;21.70;92.50
8537;DHT22;4306;50.210;10.628;2023-07-02T11:40:36;21.90;92.20
8537;DHT22;4306;50.210;10.628;2023-07-02T11:43:06;22.10;92.20
8537;DHT22;4306;50.210;10.628;2023-07-02T11:45:33;21.90;91.30
8537;DHT22;4306;50.210;10.628;2023-07-02T11:48:00;21.90;91.80
8537;DHT22;4306;50.210;10.628;2023-07-02T11:50:27;21.40;91.60
8537;DHT22;4306;50.210;10.628;2023-07-02T11:52:55;21.80;92.50
8537;DHT22;4306;50.210;10.628;2023-07-02T11:55:22;21.80;90.30
8537;DHT22;4306;50.210;10.628;2023-07-02T11:57:49;21.50;90.00
8537;DHT22;4306;50.210;10.628;2023-07-02T12:00:18;21.50;87.00
8537;DHT22;4306;50.210;10.628;2023-07-02T12:02:48;21.70;88.90
8537;DHT22;4306;50.210;10.628;2023-07-02T12:05:16;21.50;82.80
8537;DHT22;4306;50.210;10.628;2023-07-02T12:07:46;21.70;84.60
8537;DHT22;4306;50.210;10.628;2023-07-02T12:10:13;21.70;82.20
8537;DHT22;4306;50.210;10.628;2023-07-02T12:12:40;21.80;84.00
8537;DHT22;4306;50.210;10.628;2023-07-02T12:15:07;21.90;85.30
8537;DHT22;4306;50.210;10.628;2023-07-02T12:17:38;21.30;84.60
8537;DHT22;4306;50.210;10.628;2023-07-02T12:20:06;21.60;84.30
8537;DHT22;4306;50.210;10.628;2023-07-02T12:22:33;21.50;84.20
8537;DHT22;4306;50.210;10.628;2023-07-02T12:25:00;20.80;84.50
8537;DHT22;4306;50.210;10.628;2023-07-02T12:27:27;21.10;86.70
8537;DHT22;4306;50.210;10.628;2023-07-02T12:29:55;21.60;86.70
8537;DHT22;4306;50.210;10.628;2023-07-02T12:32:22;21.60;85.80
8537;DHT22;4306;50.210;10.628;2023-07-02T12:34:50;21.30;86.80
8537;DHT22;4306;50.210;10.628;2023-07-02T12:37:17;21.70;88.00
8537;DHT22;4306;50.210;10.628;2023-07-02T12:39:46;21.90;86.80
8537;DHT22;4306;50.210;10.628;2023-07-02T12:42:13;22.00;86.80
8537;DHT22;4306;50.210;10.628;2023-07-02T12:44:43;22.20;87.70
8537;DHT22;4306;50.210;10.628;2023-07-02T12:47:10;22.50;84.30
8537;DHT22;4306;50.210;10.628;2023-07-02T12:49:37;22.50;84.00
8537;DHT22;4306;50.210;10.628;2023-07-02T12:52:05;22.20;84.70
8537;DHT22;4306;50.210;10.628;2023-07-02T12:54:32;22.50;85.50
8537;DHT22;4306;50.210;10.628;2023-07-02T12:57:02;22.70;84.90
8537;DHT22;4306;50.210;10.628;2023-07-02T12:59:32;22.90;85.10
8537;DHT22;4306;50.210;10.628;2023-07-02T13:02:01;23.00;83.70
8537;DHT22;4306;50.210;10.628;2023-07-02T13:04:28;23.00;82.40
8537;DHT22;4306;50.210;10.628;2023-07-02T13:06:54;22.80;80.00
8537;DHT22;4306;50.210;10.628;2023-07-02T13:09:23;22.50;80.00
8537;DHT22;4306;50.210;10.628;2023-07-02T13:11:51;22.40;82.80
8537;DHT22;4306;50.210;10.628;2023-07-02T13:14:19;22.30;82.30
8537;DHT22;4306;50.210;10.628;2023-07-02T13:16:46;22.30;82.10
8537;DHT22;4306;50.210;10.628;2023-07-02T13:19:13;22.40;83.70
8537;DHT22;4306;50.210;10.628;2023-07-02T13:21:40;22.60;84.00
8537;DHT22;4306;50.210;10.628;2023-07-02T13:24:07;22.80;83.90
8537;DHT22;4306;50.210;10.628;2023-07-02T13:26:36;23.10;83.50
8537;DHT22;4306;50.210;10.628;2023-07-02T13:29:03;22.90;83.20
8537;DHT22;4306;50.210;10.628;2023-07-02T13:31:30;23.30;83.50
8537;DHT22;4306;50.210;10.628;2023-07-02T13:33:58;23.50;82.20
8537;DHT22;4306;50.210;10.628;2023-07-02T13:36:24;23.80;82.40
8537;DHT22;4306;50.210;10.628;2023-07-02T13:38:54;23.50;78.50
8537;DHT22;4306;50.210;10.628;2023-07-02T13:41:21;23.80;81.40
8537;DHT22;4306;50.210;10.628;2023-07-02T13:43:49;24.00;78.30
8537;DHT22;4306;50.210;10.628;2023-07-02T13:46:16;23.70;78.20
8537;DHT22;4306;50.210;10.628;2023-07-02T13:48:43;23.80;77.90
8537;DHT22;4306;50.210;10.628;2023-07-02T13:51:09;24.00;78.70
8537;DHT22;4306;50.210;10.628;2023-07-02T13:53:36;24.20;78.30
8537;DHT22;4306;50.210;10.628;2023-07-02T13:56:03;24.40;76.70
8537;DHT22;4306;50.210;10.628;2023-07-02T14:01:14;23.70;75.50
8537;DHT22;4306;50.210;10.628;2023-07-02T14:03:41;23.40;76.70
8537;DHT22;4306;50.210;10.628;2023-07-02T14:06:08;23.70;76.50
8537;DHT22;4306;50.210;10.628;2023-07-02T14:08:35;24.00;76.80
8537;DHT22;4306;50.210;10.628;2023-07-02T14:11:02;23.60;75.00
8537;DHT22;4306;50.210;10.628;2023-07-02T14:13:30;23.40;76.10
8537;DHT22;4306;50.210;10.628;2023-07-02T14:15:57;23.50;77.20
8537;DHT22;4306;50.210;10.628;2023-07-02T14:18:25;23.70;77.70
8537;DHT22;4306;50.210;10.628;2023-07-02T14:20:52;23.40;76.50
8537;DHT22;4306;50.210;10.628;2023-07-02T14:23:19;23.40;76.60
8537;DHT22;4306;50.210;10.628;2023-07-02T14:25:46;23.40;77.40
8537;DHT22;4306;50.210;10.628;2023-07-02T14:28:13;23.40;76.60
8537;DHT22;4306;50.210;10.628;2023-07-02T14:30:39;23.50;76.50
8537;DHT22;4306;50.210;10.628;2023-07-02T14:33:08;23.40;76.80
8537;DHT22;4306;50.210;10.628;2023-07-02T14:35:36;23.50;76.60
8537;DHT22;4306;50.210;10.628;2023-07-02T14:38:03;23.60;74.90
8537;DHT22;4306;50.210;10.628;2023-07-02T14:40:31;23.50;74.60
8537;DHT22;4306;50.210;10.628;2023-07-02T14:42:58;23.40;72.90
8537;DHT22;4306;50.210;10.628;2023-07-02T14:45:25;22.90;71.50
8537;DHT22;4306;50.210;10.628;2023-07-02T14:47:52;23.20;74.30
8537;DHT22;4306;50.210;10.628;2023-07-02T14:50:25;23.40;73.30
8537;DHT22;4306;50.210;10.628;2023-07-02T14:52:53;23.20;73.70
8537;DHT22;4306;50.210;10.628;2023-07-02T14:55:20;23.40;74.90
8537;DHT22;4306;50.210;10.628;2023-07-02T14:57:48;23.50;74.90
8537;DHT22;4306;50.210;10.628;2023-07-02T15:00:15;23.60;75.00
8537;DHT22;4306;50.210;10.628;2023-07-02T15:02:42;23.30;73.30
8537;DHT22;4306;50.210;10.628;2023-07-02T15:05:09;23.40;74.30
8537;DHT22;4306;50.210;10.628;2023-07-02T15:07:36;23.50;74.50
8537;DHT22;4306;50.210;10.628;2023-07-02T15:10:04;23.60;75.60
8537;DHT22;4306;50.210;10.628;2023-07-02T15:12:31;23.70;74.50
8537;DHT22;4306;50.210;10.628;2023-07-02T15:14:58;23.70;74.60
8537;DHT22;4306;50.210;10.628;2023-07-02T15:17:25;23.80;73.50
8537;DHT22;4306;50.210;10.628;2023-07-02T15:19:51;23.90;74.40
8537;DHT22;4306;50.210;10.628;2023-07-02T15:22:18;24.10;74.10
8537;DHT22;4306;50.210;10.628;2023-07-02T15:24:45;23.80;70.10
8537;DHT22;4306;50.210;10.628;2023-07-02T15:27:13;23.40;70.40
8537;DHT22;4306;50.210;10.628;2023-07-02T15:29:40;23.60;70.70
8537;DHT22;4306;50.210;10.628;2023-07-02T15:32:07;23.80;70.10
8537;DHT22;4306;50.210;10.628;2023-07-02T15:34:34;23.80;72.20
8537;DHT22;4306;50.210;10.628;2023-07-02T15:37:00;23.80;69.20
8537;DHT22;4306;50.210;10.628;2023-07-02T15:39:27;24.00;69.00
8537;DHT22;4306;50.210;10.628;2023-07-02T15:41:58;23.60;68.30
8537;DHT22;4306;50.210;10.628;2023-07-02T15:44:26;23.70;68.40
8537;DHT22;4306;50.210;10.628;2023-07-02T15:46:53;23.70;67.80
8537;DHT22;4306;50.210;10.628;2023-07-02T15:49:21;23.20;69.00
8537;DHT22;4306;50.210;10.628;2023-07-02T15:51:48;23.20;70.60
8537;DHT22;4306;50.210;10.628;2023-07-02T15:54:15;23.20;68.90
8537;DHT22;4306;50.210;10.628;2023-07-02T15:56:41;23.50;70.50
8537;DHT22;4306;50.210;10.628;2023-07-02T15:59:08;23.80;70.40
8537;DHT22;4306;50.210;10.628;2023-07-02T16:01:36;23.40;69.00